createdAt,value
2022-09-23T00:00:32.618Z,94292.55
2022-09-23T00:01:55.876Z,94295.33
2022-09-23T00:03:00.100Z,94292.86
2022-09-23T00:04:03.439Z,94295.56
2022-09-23T00:05:07.432Z,94292.86
2022-09-23T00:06:16.018Z,94291.22
2022-09-23T00:07:21.977Z,94294.14
2022-09-23T00:08:25.819Z,94292.80
2022-09-23T00:09:29.015Z,94293.86
2022-09-23T00:10:33.122Z,94296.48
2022-09-23T00:11:36.367Z,94294.27
2022-09-23T00:12:39.512Z,94296.40
2022-09-23T00:13:45.099Z,94294.72
2022-09-23T00:14:48.366Z,94293.31
2022-09-23T00:15:52.394Z,94291.84
2022-09-23T00:16:55.773Z,94291.95
2022-09-23T00:17:59.003Z,94292.12
2022-09-23T00:19:04.164Z,94290.59
2022-09-23T00:20:09.460Z,94289.54
2022-09-23T00:21:14.642Z,94290.89
2022-09-23T00:22:18.619Z,94289.64
2022-09-23T00:23:21.854Z,94283.81
2022-09-23T00:24:25.050Z,94291.35
2022-09-23T00:25:29.874Z,94286.56
2022-09-23T00:26:33.112Z,94285.23
2022-09-23T00:27:37.778Z,94286.89
2022-09-23T00:28:41.790Z,94285.52
2022-09-23T00:29:45.004Z,94283.29
2022-09-23T00:30:54.205Z,94281.89
2022-09-23T00:31:58.018Z,94283.31
2022-09-23T00:33:01.550Z,94280.73
2022-09-23T00:34:04.903Z,94273.66
2022-09-23T00:35:09.168Z,94278.45
2022-09-23T00:36:17.985Z,94279.13
2022-09-23T00:37:21.577Z,94275.96
2022-09-23T00:38:24.908Z,94275.94
2022-09-23T00:39:28.095Z,94273.28
2022-09-23T00:40:33.919Z,94271.03
2022-09-23T00:41:37.438Z,94266.45
2022-09-23T00:42:49.231Z,94267.19
2022-09-23T00:43:58.693Z,94266.02
2022-09-23T00:45:02.349Z,94265.52
2022-09-23T00:46:08.468Z,94265.89
2022-09-23T00:47:19.619Z,94264.73
2022-09-23T00:48:22.905Z,94263.31
2022-09-23T00:49:29.906Z,94265.54
2022-09-23T00:50:38.258Z,94262.40
2022-09-23T00:51:54.297Z,94261.17
2022-09-23T00:53:01.531Z,94265.33
2022-09-23T00:54:06.778Z,94264.73
2022-09-23T00:55:18.282Z,94266.55
2022-09-23T00:56:24.540Z,94267.58
2022-09-23T00:57:30.808Z,94267.20
2022-09-23T00:58:38.702Z,94266.02
2022-09-23T00:59:42.461Z,94260.70
2022-09-23T01:00:47.025Z,94262.70
2022-09-23T01:01:54.983Z,94262.48
2022-09-23T01:02:58.302Z,94260.90
2022-09-23T01:04:01.667Z,94259.02
2022-09-23T01:05:06.547Z,94260.67
2022-09-23T01:06:10.796Z,94260.11
2022-09-23T01:07:13.922Z,94261.13
2022-09-23T01:08:17.773Z,94259.39
2022-09-23T01:09:23.042Z,94262.73
2022-09-23T01:10:32.092Z,94262.52
2022-09-23T01:11:44.408Z,94253.58
2022-09-23T01:12:58.702Z,94257.84
2022-09-23T01:14:11.269Z,94253.70
2022-09-23T01:15:33.672Z,94250.77
2022-09-23T01:16:57.313Z,94251.23
2022-09-23T01:18:21.322Z,94243.90
2022-09-23T01:19:36.813Z,94243.54
2022-09-23T01:20:40.057Z,94246.62
2022-09-23T01:21:58.280Z,94245.39
2022-09-23T01:23:22.353Z,94248.18
2022-09-23T01:24:34.674Z,94245.95
2022-09-23T01:26:05.405Z,94244.10
2022-09-23T01:27:22.314Z,94244.07
2022-09-23T01:28:55.211Z,94239.67
2022-09-23T01:30:37.187Z,94236.05
2022-09-23T01:31:55.709Z,94239.55
2022-09-23T01:32:58.977Z,94238.15
2022-09-23T01:34:13.599Z,94230.36
2022-09-23T01:35:32.079Z,94232.80
2022-09-23T01:36:51.897Z,94226.52
2022-09-23T01:38:01.497Z,94228.31
2022-09-23T01:39:18.997Z,94219.52
2022-09-23T01:40:31.580Z,94220.62
2022-09-23T01:41:44.067Z,94222.14
2022-09-23T01:43:04.902Z,94221.02
2022-09-23T01:44:16.122Z,94221.48
2022-09-23T01:45:31.238Z,94224.36
2022-09-23T01:46:55.317Z,94221.84
2022-09-23T01:48:10.534Z,94219.73
2022-09-23T01:49:57.200Z,94222.34
2022-09-23T01:51:09.277Z,94221.30
2022-09-23T01:52:25.945Z,94220.73
2022-09-23T01:53:49.138Z,94222.57
2022-09-23T01:55:35.051Z,94219.94
2022-09-23T01:56:49.448Z,94219.94
2022-09-23T01:58:07.682Z,94221.68
2022-09-23T01:59:21.825Z,94219.68
2022-09-23T02:00:27.833Z,94224.52
2022-09-23T02:01:43.440Z,94222.73
2022-09-23T02:02:53.581Z,94223.10
2022-09-23T02:04:09.023Z,94224.81
2022-09-23T02:05:42.259Z,94225.14
2022-09-23T02:06:54.591Z,94221.29
2022-09-23T02:08:02.199Z,94224.73
2022-09-23T02:09:12.185Z,94222.04
2022-09-23T02:10:42.295Z,94223.64
2022-09-23T02:11:48.404Z,94219.39
2022-09-23T02:13:00.312Z,94221.09
2022-09-23T02:14:26.147Z,94220.77
2022-09-23T02:15:35.414Z,94219.80
2022-09-23T02:16:47.638Z,94217.39
2022-09-23T02:18:05.182Z,94215.39
2022-09-23T02:19:36.688Z,94219.90
2022-09-23T02:20:40.313Z,94218.32
2022-09-23T02:21:55.614Z,94218.40
2022-09-23T02:23:07.787Z,94218.70
2022-09-23T02:24:21.266Z,94214.92
2022-09-23T02:25:35.688Z,94217.43
2022-09-23T02:26:49.294Z,94210.66
2022-09-23T02:28:02.343Z,94216.63
2022-09-23T02:29:09.128Z,94212.05
2022-09-23T02:30:20.427Z,94213.61
2022-09-23T02:31:37.947Z,94213.68
2022-09-23T02:32:47.219Z,94213.13
2022-09-23T02:33:59.450Z,94213.00
2022-09-23T02:35:37.372Z,94211.55
2022-09-23T02:36:46.976Z,94212.48
2022-09-23T02:38:11.287Z,94210.66
2022-09-23T02:39:15.272Z,94211.22
2022-09-23T02:40:32.339Z,94212.62
2022-09-23T02:41:50.294Z,94210.13
2022-09-23T02:43:09.283Z,94211.60
2022-09-23T02:44:16.168Z,94211.73
2022-09-23T02:45:19.667Z,94211.34
2022-09-23T02:46:23.665Z,94209.27
2022-09-23T02:47:32.487Z,94207.16
2022-09-23T02:48:48.893Z,94203.30
2022-09-23T02:49:53.404Z,94207.44
2022-09-23T02:50:58.498Z,94204.60
2022-09-23T02:52:04.973Z,94201.17
2022-09-23T02:53:08.866Z,94196.30
2022-09-23T02:54:16.974Z,94201.45
2022-09-23T02:55:23.680Z,94199.09
2022-09-23T02:56:26.873Z,94197.89
2022-09-23T02:57:30.659Z,94195.85
2022-09-23T02:58:34.536Z,94191.74
2022-09-23T02:59:38.647Z,94192.83
2022-09-23T03:00:52.039Z,94190.13
2022-09-23T03:02:07.192Z,94190.14
2022-09-23T03:03:19.529Z,94187.58
2022-09-23T03:04:42.726Z,94189.52
2022-09-23T03:05:57.814Z,94187.83
2022-09-23T03:07:19.087Z,94187.71
2022-09-23T03:08:26.031Z,94186.23
2022-09-23T03:09:50.666Z,94185.88
2022-09-23T03:10:53.824Z,94185.52
2022-09-23T03:12:25.444Z,94185.27
2022-09-23T03:13:59.592Z,94185.23
2022-09-23T03:15:21.563Z,94179.39
2022-09-23T03:16:36.546Z,94180.11
2022-09-23T03:17:41.678Z,94181.09
2022-09-23T03:19:20.440Z,94179.35
2022-09-23T03:20:35.712Z,94178.41
2022-09-23T03:21:49.317Z,94178.89
2022-09-23T03:22:57.330Z,94175.57
2022-09-23T03:24:05.983Z,94175.58
2022-09-23T03:25:18.274Z,94172.66
2022-09-23T03:26:30.916Z,94175.06
2022-09-23T03:27:37.305Z,94178.38
2022-09-23T03:28:44.618Z,94172.84
2022-09-23T03:29:50.399Z,94177.02
2022-09-23T03:30:56.227Z,94175.23
2022-09-23T03:32:03.137Z,94178.53
2022-09-23T03:33:12.271Z,94180.28
2022-09-23T03:34:28.660Z,94178.94
2022-09-23T03:35:55.719Z,94175.34
2022-09-23T03:37:06.724Z,94174.42
2022-09-23T03:38:17.535Z,94177.91
2022-09-23T03:39:30.763Z,94172.63
2022-09-23T03:40:42.097Z,94174.14
2022-09-23T03:41:51.102Z,94172.15
2022-09-23T03:42:57.665Z,94169.03
2022-09-23T03:44:02.528Z,94164.62
2022-09-23T03:45:10.000Z,94168.04
2022-09-23T03:46:14.549Z,94169.52
2022-09-23T03:47:18.812Z,94167.16
2022-09-23T03:48:22.343Z,94166.46
2022-09-23T03:49:33.498Z,94166.48
2022-09-23T03:50:38.118Z,94164.94
2022-09-23T03:51:44.499Z,94161.64
2022-09-23T03:52:49.801Z,94164.84
2022-09-23T03:53:52.979Z,94165.66
2022-09-23T03:54:56.197Z,94162.40
2022-09-23T03:56:00.956Z,94167.84
2022-09-23T03:57:04.279Z,94166.33
2022-09-23T03:58:08.329Z,94168.11
2022-09-23T03:59:11.435Z,94171.76
2022-09-23T04:00:16.200Z,94174.63
2022-09-23T04:01:19.526Z,94169.77
2022-09-23T04:02:25.331Z,94169.89
2022-09-23T04:03:29.463Z,94168.98
2022-09-23T04:04:34.354Z,94168.14
2022-09-23T04:05:37.683Z,94167.94
2022-09-23T04:06:41.325Z,94166.14
2022-09-23T04:07:44.723Z,94165.55
2022-09-23T04:08:55.726Z,94162.61
2022-09-23T04:09:59.195Z,94159.30
2022-09-23T04:11:03.841Z,94163.48
2022-09-23T04:12:10.057Z,94163.75
2022-09-23T04:13:13.289Z,94164.06
2022-09-23T04:14:17.757Z,94163.58
2022-09-23T04:15:21.908Z,94164.02
2022-09-23T04:16:26.241Z,94163.97
2022-09-23T04:17:29.874Z,94162.80
2022-09-23T04:18:33.847Z,94164.15
2022-09-23T04:19:37.806Z,94159.65
2022-09-23T04:20:41.098Z,94162.27
2022-09-23T04:21:45.087Z,94163.77
2022-09-23T04:22:48.435Z,94165.05
2022-09-23T04:23:51.668Z,94163.77
2022-09-23T04:24:54.957Z,94162.05
2022-09-23T04:25:58.121Z,94163.24
2022-09-23T04:27:02.126Z,94162.49
2022-09-23T04:28:07.401Z,94163.70
2022-09-23T04:29:13.344Z,94162.33
2022-09-23T04:30:16.976Z,94159.74
2022-09-23T04:31:23.960Z,94159.39
2022-09-23T04:32:27.181Z,94159.23
2022-09-23T04:33:32.633Z,94156.13
2022-09-23T04:34:36.074Z,94158.00
2022-09-23T04:35:40.621Z,94154.98
2022-09-23T04:36:50.809Z,94157.14
2022-09-23T04:37:53.999Z,94156.68
2022-09-23T04:38:57.629Z,94161.30
2022-09-23T04:40:01.228Z,94158.88
2022-09-23T04:41:04.652Z,94154.89
2022-09-23T04:42:07.883Z,94157.19
2022-09-23T04:43:13.539Z,94158.45
2022-09-23T04:44:17.333Z,94155.64
2022-09-23T04:45:20.729Z,94156.41
2022-09-23T04:46:25.221Z,94155.28
2022-09-23T04:47:28.603Z,94156.04
2022-09-23T04:48:36.967Z,94153.56
2022-09-23T04:49:40.911Z,94153.86
2022-09-23T04:50:44.174Z,94157.00
2022-09-23T04:51:47.969Z,94156.13
2022-09-23T04:52:51.789Z,94157.23
2022-09-23T04:53:57.595Z,94154.27
2022-09-23T04:55:00.786Z,94153.83
2022-09-23T04:56:06.604Z,94159.35
2022-09-23T04:57:11.143Z,94158.23
2022-09-23T04:58:15.595Z,94155.23
2022-09-23T04:59:19.089Z,94150.90
2022-09-23T05:00:24.551Z,94154.05
2022-09-23T05:01:30.851Z,94153.33
2022-09-23T05:02:39.768Z,94155.44
2022-09-23T05:03:44.694Z,94159.77
2022-09-23T05:04:48.609Z,94157.60
2022-09-23T05:05:52.000Z,94161.16
2022-09-23T05:06:58.394Z,94163.43
2022-09-23T05:08:04.014Z,94163.98
2022-09-23T05:09:08.539Z,94166.44
2022-09-23T05:10:12.185Z,94165.96
2022-09-23T05:11:15.513Z,94163.79
2022-09-23T05:12:18.871Z,94162.81
2022-09-23T05:13:24.571Z,94159.48
2022-09-23T05:14:28.258Z,94164.05
2022-09-23T05:15:31.690Z,94165.56
2022-09-23T05:16:36.243Z,94164.89
2022-09-23T05:17:39.383Z,94164.56
2022-09-23T05:18:44.153Z,94164.65
2022-09-23T05:19:47.291Z,94163.02
2022-09-23T05:20:56.497Z,94166.36
2022-09-23T05:21:59.713Z,94170.36
2022-09-23T05:23:03.005Z,94167.71
2022-09-23T05:24:06.342Z,94167.29
2022-09-23T05:25:09.761Z,94169.40
2022-09-23T05:26:14.019Z,94167.16
2022-09-23T05:27:17.297Z,94166.41
2022-09-23T05:28:21.499Z,94163.38
2022-09-23T05:29:24.908Z,94169.42
2022-09-23T05:30:28.056Z,94169.05
2022-09-23T05:31:32.009Z,94173.75
2022-09-23T05:32:36.127Z,94174.38
2022-09-23T05:33:39.808Z,94175.09
2022-09-23T05:34:43.281Z,94175.23
2022-09-23T05:35:47.723Z,94174.98
2022-09-23T05:36:51.023Z,94172.20
2022-09-23T05:37:54.268Z,94173.27
2022-09-23T05:38:57.619Z,94173.67
2022-09-23T05:40:01.013Z,94173.69
2022-09-23T05:41:07.632Z,94172.70
2022-09-23T05:42:13.898Z,94166.61
2022-09-23T05:43:17.276Z,94172.88
2022-09-23T05:44:20.428Z,94170.48
2022-09-23T05:45:26.841Z,94169.66
2022-09-23T05:46:32.221Z,94167.80
2022-09-23T05:47:35.785Z,94169.46
2022-09-23T05:48:40.572Z,94167.58
2022-09-23T05:49:59.251Z,94170.73
2022-09-23T05:51:04.247Z,94170.77
2022-09-23T05:52:07.507Z,94169.05
2022-09-23T05:53:10.722Z,94167.39
2022-09-23T05:54:14.179Z,94165.95
2022-09-23T05:55:17.553Z,94165.63
2022-09-23T05:56:23.723Z,94168.31
2022-09-23T05:57:26.921Z,94168.90
2022-09-23T05:58:30.773Z,94170.64
2022-09-23T05:59:34.119Z,94172.14
2022-09-23T06:00:40.120Z,94176.73
2022-09-23T06:01:44.302Z,94175.72
2022-09-23T06:02:49.101Z,94176.29
2022-09-23T06:03:53.848Z,94177.00
2022-09-23T06:04:57.133Z,94175.42
2022-09-23T06:06:00.324Z,94175.82
2022-09-23T06:07:03.875Z,94177.20
2022-09-23T06:08:08.565Z,94171.42
2022-09-23T06:09:14.217Z,94175.44
2022-09-23T06:10:17.502Z,94175.82
2022-09-23T06:11:21.690Z,94172.54
2022-09-23T06:12:25.816Z,94174.09
2022-09-23T06:13:29.209Z,94174.55
2022-09-23T06:14:32.385Z,94175.41
2022-09-23T06:15:39.051Z,94174.64
2022-09-23T06:16:43.506Z,94178.44
2022-09-23T06:17:50.469Z,94177.29
2022-09-23T06:18:59.663Z,94176.68
2022-09-23T06:20:04.990Z,94178.27
2022-09-23T06:21:10.379Z,94177.55
2022-09-23T06:22:17.038Z,94176.86
2022-09-23T06:23:24.594Z,94176.66
2022-09-23T06:24:31.664Z,94177.86
2022-09-23T06:25:36.689Z,94177.02
2022-09-23T06:26:40.698Z,94174.30
2022-09-23T06:27:44.948Z,94174.91
2022-09-23T06:28:48.474Z,94169.03
2022-09-23T06:29:52.655Z,94171.13
2022-09-23T06:31:15.861Z,94173.71
2022-09-23T06:32:20.250Z,94169.08
2022-09-23T06:33:35.152Z,94171.96
2022-09-23T06:34:50.832Z,94175.63
2022-09-23T06:36:00.251Z,94174.34
2022-09-23T06:37:15.921Z,94165.42
2022-09-23T06:38:22.738Z,94170.75
2022-09-23T06:39:26.003Z,94167.11
2022-09-23T06:40:29.378Z,94165.77
2022-09-23T06:41:33.683Z,94166.48
2022-09-23T06:42:44.240Z,94166.82
2022-09-23T06:43:48.266Z,94164.37
2022-09-23T06:44:51.697Z,94165.52
2022-09-23T06:46:04.220Z,94165.37
2022-09-23T06:47:07.640Z,94163.83
2022-09-23T06:48:11.693Z,94163.81
2022-09-23T06:49:17.156Z,94161.67
2022-09-23T06:50:20.485Z,94159.30
2022-09-23T06:51:24.947Z,94158.88
2022-09-23T06:52:28.774Z,94164.05
2022-09-23T06:53:33.352Z,94164.54
2022-09-23T06:54:38.209Z,94166.24
2022-09-23T06:55:41.556Z,94164.06
2022-09-23T06:56:47.759Z,94160.57
2022-09-23T06:57:51.285Z,94159.11
2022-09-23T06:58:54.936Z,94155.23
2022-09-23T07:00:02.064Z,94158.48
2022-09-23T07:01:11.515Z,94147.27
2022-09-23T07:02:14.798Z,94154.59
2022-09-23T07:03:18.062Z,94153.58
2022-09-23T07:04:22.188Z,94158.98
2022-09-23T07:05:27.360Z,94153.72
2022-09-23T07:06:30.620Z,94152.42
2022-09-23T07:07:34.329Z,94152.44
2022-09-23T07:08:37.894Z,94150.58
2022-09-23T07:09:41.066Z,94148.16
2022-09-23T07:10:51.491Z,94151.59
2022-09-23T07:11:54.573Z,94150.24
2022-09-23T07:13:02.275Z,94147.95
2022-09-23T07:14:08.699Z,94147.18
2022-09-23T07:15:12.097Z,94147.96
2022-09-23T07:16:15.385Z,94146.70
2022-09-23T07:17:18.613Z,94147.42
2022-09-23T07:18:25.992Z,94147.17
2022-09-23T07:19:29.718Z,94144.22
2022-09-23T07:20:33.161Z,94143.58
2022-09-23T07:21:37.033Z,94145.45
2022-09-23T07:22:40.185Z,94148.83
2022-09-23T07:23:46.212Z,94149.17
2022-09-23T07:24:49.469Z,94153.55
2022-09-23T07:25:52.866Z,94148.27
2022-09-23T07:26:56.107Z,94139.40
2022-09-23T07:27:59.310Z,94150.98
2022-09-23T07:29:05.294Z,94149.56
2022-09-23T07:30:17.088Z,94149.89
2022-09-23T07:31:37.767Z,94146.41
2022-09-23T07:32:48.556Z,94147.04
2022-09-23T07:33:57.115Z,94149.77
2022-09-23T07:35:00.412Z,94148.15
2022-09-23T07:36:13.224Z,94150.19
2022-09-23T07:37:18.353Z,94148.56
2022-09-23T07:38:32.062Z,94147.85
2022-09-23T07:39:36.919Z,94149.27
2022-09-23T07:40:40.444Z,94149.97
2022-09-23T07:41:44.558Z,94150.16
2022-09-23T07:42:48.213Z,94152.36
2022-09-23T07:43:52.864Z,94151.52
2022-09-23T07:44:57.427Z,94152.98
2022-09-23T07:46:04.098Z,94145.39
2022-09-23T07:47:07.484Z,94151.33
2022-09-23T07:48:11.137Z,94147.92
2022-09-23T07:49:14.327Z,94149.14
2022-09-23T07:50:19.296Z,94148.34
2022-09-23T07:51:25.610Z,94148.05
2022-09-23T07:52:28.715Z,94144.66
2022-09-23T07:53:32.274Z,94147.36
2022-09-23T07:54:35.813Z,94147.00
2022-09-23T07:55:39.100Z,94145.07
2022-09-23T07:56:43.304Z,94142.74
2022-09-23T07:57:46.988Z,94145.49
2022-09-23T07:59:03.970Z,94146.98
2022-09-23T08:00:07.818Z,94147.92
2022-09-23T08:01:14.808Z,94149.16
2022-09-23T08:02:19.367Z,94147.16
2022-09-23T08:03:23.015Z,94144.24
2022-09-23T08:04:33.289Z,94143.88
2022-09-23T08:05:37.743Z,94143.65
2022-09-23T08:06:45.894Z,94148.27
2022-09-23T08:07:49.673Z,94143.58
2022-09-23T08:08:53.577Z,94143.36
2022-09-23T08:09:56.909Z,94140.38
2022-09-23T08:11:08.612Z,94140.08
2022-09-23T08:12:16.797Z,94140.36
2022-09-23T08:13:20.212Z,94140.64
2022-09-23T08:14:23.753Z,94138.58
2022-09-23T08:15:28.490Z,94139.63
2022-09-23T08:16:32.002Z,94138.99
2022-09-23T08:17:38.283Z,94135.81
2022-09-23T08:18:45.094Z,94141.23
2022-09-23T08:19:49.105Z,94139.38
2022-09-23T08:20:52.852Z,94140.04
2022-09-23T08:21:59.388Z,94136.64
2022-09-23T08:23:02.559Z,94138.89
2022-09-23T08:24:09.299Z,94141.22
2022-09-23T08:25:14.830Z,94135.55
2022-09-23T08:26:21.722Z,94134.58
2022-09-23T08:27:25.509Z,94129.92
2022-09-23T08:28:29.317Z,94132.85
2022-09-23T08:29:32.731Z,94128.34
2022-09-23T08:30:36.045Z,94127.98
2022-09-23T08:31:39.437Z,94129.41
2022-09-23T08:32:42.616Z,94130.00
2022-09-23T08:33:45.868Z,94131.86
2022-09-23T08:34:49.376Z,94127.77
2022-09-23T08:35:53.677Z,94127.98
2022-09-23T08:36:57.020Z,94128.87
2022-09-23T08:38:00.237Z,94127.67
2022-09-23T08:39:04.880Z,94126.55
2022-09-23T08:40:08.759Z,94125.48
2022-09-23T08:41:22.591Z,94121.59
2022-09-23T08:42:32.614Z,94118.04
2022-09-23T08:43:37.234Z,94118.27
2022-09-23T08:44:54.554Z,94115.77
2022-09-23T08:46:01.881Z,94115.94
2022-09-23T08:47:13.543Z,94109.29
2022-09-23T08:48:28.219Z,94110.88
2022-09-23T08:49:39.596Z,94110.78
2022-09-23T08:50:47.159Z,94112.27
2022-09-23T08:51:55.130Z,94108.21
2022-09-23T08:53:07.999Z,94109.52
2022-09-23T08:54:12.934Z,94106.51
2022-09-23T08:55:17.283Z,94101.99
2022-09-23T08:56:23.633Z,94103.05
2022-09-23T08:57:43.421Z,94107.58
2022-09-23T08:59:18.766Z,94104.95
2022-09-23T09:00:27.699Z,94101.20
2022-09-23T09:01:52.160Z,94103.02
2022-09-23T09:02:56.341Z,94099.77
2022-09-23T09:04:14.686Z,94102.45
2022-09-23T09:05:26.442Z,94099.53
2022-09-23T09:07:03.575Z,94102.97
2022-09-23T09:08:29.957Z,94096.42
2022-09-23T09:09:40.231Z,94104.23
2022-09-23T09:10:47.563Z,94107.87
2022-09-23T09:11:58.267Z,94105.52
2022-09-23T09:13:10.961Z,94108.70
2022-09-23T09:14:27.515Z,94107.95
2022-09-23T09:15:31.292Z,94108.02
2022-09-23T09:17:08.218Z,94109.89
2022-09-23T09:18:20.280Z,94109.04
2022-09-23T09:19:52.297Z,94108.33
2022-09-23T09:20:59.115Z,94106.14
2022-09-23T09:22:12.132Z,94106.73
2022-09-23T09:23:27.699Z,94104.10
2022-09-23T09:24:40.485Z,94101.41
2022-09-23T09:25:46.311Z,94104.00
2022-09-23T09:26:49.721Z,94104.34
2022-09-23T09:27:56.079Z,94100.44
2022-09-23T09:29:31.239Z,94100.72
2022-09-23T09:30:35.046Z,94100.21
2022-09-23T09:31:46.437Z,94100.41
2022-09-23T09:33:02.840Z,94097.67
2022-09-23T09:34:17.034Z,94095.91
2022-09-23T09:35:36.901Z,94092.10
2022-09-23T09:36:58.131Z,94086.20
2022-09-23T09:38:02.014Z,94095.66
2022-09-23T09:39:09.077Z,94095.72
2022-09-23T09:40:13.387Z,94091.70
2022-09-23T09:41:18.443Z,94090.17
2022-09-23T09:42:27.526Z,94091.86
2022-09-23T09:43:32.506Z,94090.36
2022-09-23T09:44:59.176Z,94088.20
2022-09-23T09:46:21.986Z,94087.90
2022-09-23T09:47:57.540Z,94090.97
2022-09-23T09:49:08.475Z,94088.63
2022-09-23T09:50:21.879Z,94083.71
2022-09-23T09:51:29.585Z,94085.24
2022-09-23T09:52:38.954Z,94082.41
2022-09-23T09:53:42.312Z,94081.75
2022-09-23T09:54:45.548Z,94082.73
2022-09-23T09:56:18.583Z,94081.91
2022-09-23T09:57:40.080Z,94082.95
2022-09-23T09:58:51.163Z,94081.32
2022-09-23T09:59:54.592Z,94075.95
2022-09-23T10:00:59.133Z,94075.47
2022-09-23T10:02:33.216Z,94078.46
2022-09-23T10:03:44.137Z,94077.46
2022-09-23T10:04:56.461Z,94074.14
2022-09-23T10:05:59.933Z,94071.77
2022-09-23T10:07:15.968Z,94072.08
2022-09-23T10:08:27.039Z,94075.49
2022-09-23T10:09:36.238Z,94069.66
2022-09-23T10:10:51.679Z,94069.89
2022-09-23T10:12:18.728Z,94067.62
2022-09-23T10:13:26.560Z,94067.59
2022-09-23T10:14:30.414Z,94068.65
2022-09-23T10:15:44.870Z,94067.16
2022-09-23T10:17:05.603Z,94064.05
2022-09-23T10:18:25.076Z,94061.77
2022-09-23T10:19:29.741Z,94060.38
2022-09-23T10:20:41.170Z,94060.41
2022-09-23T10:21:52.959Z,94061.08
2022-09-23T10:22:59.157Z,94063.73
2022-09-23T10:24:08.117Z,94066.98
2022-09-23T10:25:24.868Z,94062.02
2022-09-23T10:26:44.163Z,94064.42
2022-09-23T10:27:47.547Z,94060.35
2022-09-23T10:28:53.605Z,94068.73
2022-09-23T10:29:59.399Z,94067.40
2022-09-23T10:31:05.672Z,94069.79
2022-09-23T10:32:25.793Z,94069.77
2022-09-23T10:33:29.137Z,94065.91
2022-09-23T10:34:35.191Z,94063.45
2022-09-23T10:36:00.374Z,94054.48
2022-09-23T10:37:42.743Z,94061.26
2022-09-23T10:38:50.057Z,94061.23
2022-09-23T10:40:15.072Z,94060.99
2022-09-23T10:42:02.787Z,94056.98
2022-09-23T10:43:56.637Z,94054.73
2022-09-23T10:45:46.391Z,94056.19
2022-09-23T10:47:14.914Z,94050.08
2022-09-23T10:48:57.515Z,94049.52
2022-09-23T10:50:43.327Z,94046.51
2022-09-23T10:51:58.470Z,94047.93
2022-09-23T10:53:29.612Z,94044.42
2022-09-23T10:54:52.105Z,94035.98
2022-09-23T10:56:18.531Z,94040.96
2022-09-23T10:57:43.611Z,94039.05
2022-09-23T10:59:05.015Z,94035.23
2022-09-23T11:00:22.541Z,94036.45
2022-09-23T11:01:42.944Z,94033.93
2022-09-23T11:03:07.443Z,94036.88
2022-09-23T11:04:16.791Z,94032.61
2022-09-23T11:06:05.553Z,94028.78
2022-09-23T11:07:22.142Z,94024.80
2022-09-23T11:08:56.605Z,94027.13
2022-09-23T11:10:44.889Z,94024.27
2022-09-23T11:13:54.513Z,94020.01
2022-09-23T11:15:31.461Z,94022.79
2022-09-23T11:16:46.996Z,94017.36
2022-09-23T11:18:36.328Z,94015.20
2022-09-23T11:19:56.672Z,94015.27
2022-09-23T11:21:07.423Z,94010.64
2022-09-23T11:22:36.560Z,94014.39
2022-09-23T11:24:14.703Z,94011.44
2022-09-23T11:25:37.092Z,94008.64
2022-09-23T11:27:12.839Z,94008.25
2022-09-23T11:28:40.828Z,94004.51
2022-09-23T11:30:03.607Z,94007.31
2022-09-23T11:31:47.674Z,94005.00
2022-09-23T11:33:15.969Z,94005.66
2022-09-23T11:34:45.480Z,94004.77
2022-09-23T11:35:59.055Z,94006.99
2022-09-23T11:37:13.003Z,94004.05
2022-09-23T11:38:36.145Z,93999.20
2022-09-23T11:40:15.797Z,93998.33
2022-09-23T11:41:27.361Z,93996.41
2022-09-23T11:42:40.667Z,93996.59
2022-09-23T11:43:48.247Z,93989.38
2022-09-23T11:45:02.417Z,93994.70
2022-09-23T11:46:23.733Z,93993.77
2022-09-23T11:47:43.722Z,93989.10
2022-09-23T11:48:54.605Z,93984.59
2022-09-23T11:50:15.080Z,93984.11
2022-09-23T11:51:27.655Z,93983.66
2022-09-23T11:52:37.161Z,93977.51
2022-09-23T11:53:55.517Z,93975.77
2022-09-23T11:55:21.403Z,93978.02
2022-09-23T11:56:37.326Z,93981.94
2022-09-23T11:58:03.746Z,93982.00
2022-09-23T11:59:25.215Z,93975.82
2022-09-23T12:00:46.622Z,93978.17
2022-09-23T12:02:16.070Z,93977.60
2022-09-23T12:03:39.270Z,93977.22
2022-09-23T12:04:58.641Z,93975.86
2022-09-23T12:06:14.764Z,93975.48
2022-09-23T12:07:28.737Z,93971.52
2022-09-23T12:08:33.554Z,93968.23
2022-09-23T12:10:06.535Z,93967.55
2022-09-23T12:11:30.245Z,93970.39
2022-09-23T12:13:19.349Z,93971.87
2022-09-23T12:14:34.908Z,93973.36
2022-09-23T12:16:06.086Z,93971.19
2022-09-23T12:17:15.638Z,93973.36
2022-09-23T12:18:43.135Z,93975.39
2022-09-23T12:19:51.945Z,93974.02
2022-09-23T12:21:32.739Z,93975.84
2022-09-23T12:23:06.757Z,93969.45
2022-09-23T12:24:37.929Z,93966.27
2022-09-23T12:25:49.929Z,93965.27
2022-09-23T12:26:59.663Z,93960.91
2022-09-23T12:28:15.539Z,93956.73
2022-09-23T12:29:19.469Z,93960.08
2022-09-23T12:30:27.347Z,93962.67
2022-09-23T12:31:40.332Z,93962.30
2022-09-23T12:32:45.781Z,93965.83
2022-09-23T12:33:52.514Z,93963.31
2022-09-23T12:34:56.519Z,93965.37
2022-09-23T12:36:18.091Z,93964.26
2022-09-23T12:37:36.503Z,93964.02
2022-09-23T12:39:07.620Z,93959.91
2022-09-23T12:40:31.973Z,93964.86
2022-09-23T12:41:39.127Z,93957.67
2022-09-23T12:42:46.272Z,93956.71
2022-09-23T12:44:08.420Z,93957.36
2022-09-23T12:45:37.558Z,93956.52
2022-09-23T12:46:45.604Z,93955.52
2022-09-23T12:47:48.883Z,93955.90
2022-09-23T12:48:58.323Z,93954.48
2022-09-23T12:50:02.014Z,93951.08
2022-09-23T12:51:06.894Z,93952.23
2022-09-23T12:52:14.134Z,93954.33
2022-09-23T12:53:35.661Z,93949.73
2022-09-23T12:54:40.973Z,93945.57
2022-09-23T12:55:47.183Z,93946.92
2022-09-23T12:56:56.345Z,93947.19
2022-09-23T12:57:59.504Z,93942.33
2022-09-23T12:59:17.633Z,93942.63
2022-09-23T13:00:23.146Z,93934.66
2022-09-23T13:01:27.668Z,93933.04
2022-09-23T13:02:36.708Z,93936.67
2022-09-23T13:04:04.783Z,93929.95
2022-09-23T13:05:26.668Z,93931.23
2022-09-23T13:07:06.616Z,93929.09
2022-09-23T13:08:18.520Z,93928.63
2022-09-23T13:09:28.787Z,93926.48
2022-09-23T13:10:39.874Z,93918.27
2022-09-23T13:11:45.505Z,93925.25
2022-09-23T13:12:49.221Z,93923.81
2022-09-23T13:13:56.805Z,93920.05
2022-09-23T13:15:06.374Z,93924.71
2022-09-23T13:16:24.570Z,93919.59
2022-09-23T13:17:37.765Z,93920.80
2022-09-23T13:18:59.716Z,93915.98
2022-09-23T13:20:27.295Z,93916.66
2022-09-23T13:21:42.836Z,93915.77
2022-09-23T13:22:49.278Z,93907.42
2022-09-23T13:24:22.144Z,93910.54
2022-09-23T13:25:28.846Z,93907.25
2022-09-23T13:26:34.774Z,93905.04
2022-09-23T13:27:47.801Z,93905.33
2022-09-23T13:29:02.435Z,93898.83
2022-09-23T13:30:14.815Z,93899.61
2022-09-23T13:31:21.262Z,93897.73
2022-09-23T13:32:51.926Z,93896.09
2022-09-23T13:34:07.750Z,93897.11
2022-09-23T13:35:16.882Z,93893.09
2022-09-23T13:36:21.320Z,93891.74
2022-09-23T13:37:47.980Z,93890.71
2022-09-23T13:38:51.139Z,93888.59
2022-09-23T13:40:07.732Z,93889.46
2022-09-23T13:41:31.673Z,93888.14
2022-09-23T13:42:38.511Z,93887.73
2022-09-23T13:44:15.265Z,93886.27
2022-09-23T13:45:23.921Z,93878.27
2022-09-23T13:46:30.205Z,93878.73
2022-09-23T13:47:36.264Z,93881.27
2022-09-23T13:48:43.281Z,93879.27
2022-09-23T13:49:48.299Z,93880.62
2022-09-23T13:50:54.118Z,93879.74
2022-09-23T13:51:57.849Z,93884.54
2022-09-23T13:53:06.639Z,93875.45
2022-09-23T13:54:51.854Z,93880.17